Saint-Stanislas, Canada
Current Conditions -  °F | °C
As of 11:00 AM on Friday 31 Oct 2014 (Local Time) from CYRJ Reporting Station
Broken Clouds Broken Clouds  
Wind Chill: -2°   Ceiling: 2500
Heat Index:   Visibility: 40mi
Dew Point: -3°   Wind: 7mph
Humidity: 75%   Direction: 340°NNW
Pressure: 30.1"   Gusts: NA
Location:  49°N, 72.17°W
Report Text: CYRJ 311500Z 34006KT 300V360 40SM BKN025 01/M03 A3010 RMK SC7 SLP201
Loading
Personal Weather Stations






























Interactive Weather Map
Tropical Storm Tracking
New forecast layout! Learn more

10-Day Weather Forecast

Advertisements
Track Severe Weather on mobile